sensor_id;sensor_type;location;lat;lon;timestamp;P1;durP1;ratioP1;P2;durP2;ratioP2
64712;SDS011;51140;45.340;5.980;2024-02-15T00:00:11;4.38;;;1.58;;
64712;SDS011;51140;45.340;5.980;2024-02-15T00:02:37;8.57;;;1.35;;
64712;SDS011;51140;45.340;5.980;2024-02-15T00:05:03;3.50;;;1.40;;
64712;SDS011;51140;45.340;5.980;2024-02-15T00:07:28;4.25;;;1.20;;
64712;SDS011;51140;45.340;5.980;2024-02-15T00:09:54;4.18;;;1.40;;
64712;SDS011;51140;45.340;5.980;2024-02-15T00:12:20;4.10;;;1.27;;
64712;SDS011;51140;45.340;5.980;2024-02-15T00:14:46;3.85;;;1.42;;
64712;SDS011;51140;45.340;5.980;2024-02-15T00:17:11;3.63;;;1.30;;
64712;SDS011;51140;45.340;5.980;2024-02-15T00:19:37;5.03;;;1.23;;
64712;SDS011;51140;45.340;5.980;2024-02-15T00:22:04;3.25;;;1.08;;
64712;SDS011;51140;45.340;5.980;2024-02-15T00:24:30;3.88;;;1.27;;
64712;SDS011;51140;45.340;5.980;2024-02-15T00:26:56;4.05;;;1.45;;
64712;SDS011;51140;45.340;5.980;2024-02-15T00:29:21;4.97;;;1.70;;
64712;SDS011;51140;45.340;5.980;2024-02-15T00:31:47;6.20;;;1.73;;
64712;SDS011;51140;45.340;5.980;2024-02-15T00:34:12;5.55;;;1.40;;
64712;SDS011;51140;45.340;5.980;2024-02-15T00:36:38;2.78;;;1.10;;
64712;SDS011;51140;45.340;5.980;2024-02-15T00:39:03;3.53;;;1.10;;
64712;SDS011;51140;45.340;5.980;2024-02-15T00:41:31;4.10;;;1.25;;
64712;SDS011;51140;45.340;5.980;2024-02-15T00:43:58;7.43;;;1.17;;
64712;SDS011;51140;45.340;5.980;2024-02-15T00:46:24;6.97;;;1.52;;
64712;SDS011;51140;45.340;5.980;2024-02-15T00:48:54;3.25;;;1.00;;
64712;SDS011;51140;45.340;5.980;2024-02-15T00:51:19;3.55;;;1.10;;
64712;SDS011;51140;45.340;5.980;2024-02-15T00:53:45;6.80;;;2.60;;
64712;SDS011;51140;45.340;5.980;2024-02-15T00:56:10;5.20;;;1.80;;
64712;SDS011;51140;45.340;5.980;2024-02-15T00:58:36;6.05;;;1.50;;
64712;SDS011;51140;45.340;5.980;2024-02-15T01:01:01;5.07;;;1.83;;
64712;SDS011;51140;45.340;5.980;2024-02-15T01:03:27;5.15;;;1.70;;
64712;SDS011;51140;45.340;5.980;2024-02-15T01:05:52;6.68;;;1.73;;
64712;SDS011;51140;45.340;5.980;2024-02-15T01:08:18;3.67;;;1.33;;
64712;SDS011;51140;45.340;5.980;2024-02-15T01:10:44;4.75;;;1.77;;
64712;SDS011;51140;45.340;5.980;2024-02-15T01:13:10;6.88;;;2.53;;
64712;SDS011;51140;45.340;5.980;2024-02-15T01:15:37;6.28;;;1.80;;
64712;SDS011;51140;45.340;5.980;2024-02-15T01:18:04;5.13;;;1.63;;
64712;SDS011;51140;45.340;5.980;2024-02-15T01:20:29;5.32;;;1.83;;
64712;SDS011;51140;45.340;5.980;2024-02-15T01:22:55;4.35;;;1.20;;
64712;SDS011;51140;45.340;5.980;2024-02-15T01:25:21;3.75;;;1.20;;
64712;SDS011;51140;45.340;5.980;2024-02-15T01:27:46;3.38;;;1.30;;
64712;SDS011;51140;45.340;5.980;2024-02-15T01:30:13;5.65;;;1.45;;
64712;SDS011;51140;45.340;5.980;2024-02-15T01:32:38;4.15;;;1.23;;
64712;SDS011;51140;45.340;5.980;2024-02-15T01:35:07;4.82;;;1.40;;
64712;SDS011;51140;45.340;5.980;2024-02-15T01:37:33;3.58;;;1.20;;
64712;SDS011;51140;45.340;5.980;2024-02-15T01:39:58;3.55;;;1.17;;
64712;SDS011;51140;45.340;5.980;2024-02-15T01:42:23;4.28;;;1.35;;
64712;SDS011;51140;45.340;5.980;2024-02-15T01:44:49;7.72;;;2.92;;
64712;SDS011;51140;45.340;5.980;2024-02-15T01:47:15;4.82;;;1.27;;
64712;SDS011;51140;45.340;5.980;2024-02-15T01:49:42;5.07;;;1.95;;
64712;SDS011;51140;45.340;5.980;2024-02-15T01:52:07;9.13;;;4.00;;
64712;SDS011;51140;45.340;5.980;2024-02-15T01:54:34;6.68;;;2.70;;
64712;SDS011;51140;45.340;5.980;2024-02-15T01:57:01;3.70;;;1.35;;
64712;SDS011;51140;45.340;5.980;2024-02-15T01:59:27;3.22;;;1.20;;
64712;SDS011;51140;45.340;5.980;2024-02-15T02:01:53;5.35;;;1.60;;
64712;SDS011;51140;45.340;5.980;2024-02-15T02:04:19;3.13;;;1.27;;
64712;SDS011;51140;45.340;5.980;2024-02-15T02:06:45;4.72;;;1.50;;
64712;SDS011;51140;45.340;5.980;2024-02-15T02:09:11;2.72;;;1.00;;
64712;SDS011;51140;45.340;5.980;2024-02-15T02:11:41;4.20;;;1.10;;
64712;SDS011;51140;45.340;5.980;2024-02-15T02:14:09;3.70;;;1.35;;
64712;SDS011;51140;45.340;5.980;2024-02-15T02:16:36;3.47;;;1.20;;
64712;SDS011;51140;45.340;5.980;2024-02-15T02:19:03;3.78;;;1.20;;
64712;SDS011;51140;45.340;5.980;2024-02-15T02:21:33;4.13;;;1.48;;
64712;SDS011;51140;45.340;5.980;2024-02-15T02:24:00;4.10;;;1.50;;
64712;SDS011;51140;45.340;5.980;2024-02-15T02:26:33;2.90;;;1.17;;
64712;SDS011;51140;45.340;5.980;2024-02-15T02:29:02;3.05;;;1.15;;
64712;SDS011;51140;45.340;5.980;2024-02-15T02:31:35;4.63;;;1.30;;
64712;SDS011;51140;45.340;5.980;2024-02-15T02:34:01;4.72;;;1.45;;
64712;SDS011;51140;45.340;5.980;2024-02-15T02:36:26;3.97;;;1.20;;
64712;SDS011;51140;45.340;5.980;2024-02-15T02:38:52;4.93;;;1.42;;
64712;SDS011;51140;45.340;5.980;2024-02-15T02:41:18;4.30;;;1.60;;
64712;SDS011;51140;45.340;5.980;2024-02-15T02:43:48;5.15;;;2.03;;
64712;SDS011;51140;45.340;5.980;2024-02-15T02:46:13;5.03;;;1.58;;
64712;SDS011;51140;45.340;5.980;2024-02-15T02:48:39;6.75;;;1.60;;
64712;SDS011;51140;45.340;5.980;2024-02-15T02:51:05;4.88;;;1.35;;
64712;SDS011;51140;45.340;5.980;2024-02-15T02:53:31;5.82;;;1.70;;
64712;SDS011;51140;45.340;5.980;2024-02-15T02:55:57;3.35;;;1.38;;
64712;SDS011;51140;45.340;5.980;2024-02-15T02:58:22;3.13;;;1.17;;
64712;SDS011;51140;45.340;5.980;2024-02-15T03:00:48;4.50;;;1.20;;
64712;SDS011;51140;45.340;5.980;2024-02-15T03:03:14;4.03;;;1.38;;
64712;SDS011;51140;45.340;5.980;2024-02-15T03:05:40;4.65;;;1.60;;
64712;SDS011;51140;45.340;5.980;2024-02-15T03:08:07;2.80;;;1.00;;
64712;SDS011;51140;45.340;5.980;2024-02-15T03:10:33;5.20;;;1.52;;
64712;SDS011;51140;45.340;5.980;2024-02-15T03:12:59;4.60;;;1.20;;
64712;SDS011;51140;45.340;5.980;2024-02-15T03:15:24;4.05;;;1.10;;
64712;SDS011;51140;45.340;5.980;2024-02-15T03:17:50;3.47;;;1.20;;
64712;SDS011;51140;45.340;5.980;2024-02-15T03:20:16;8.10;;;2.33;;
64712;SDS011;51140;45.340;5.980;2024-02-15T03:22:55;6.38;;;1.70;;
64712;SDS011;51140;45.340;5.980;2024-02-15T03:25:22;5.22;;;1.88;;
64712;SDS011;51140;45.340;5.980;2024-02-15T03:27:49;5.22;;;2.00;;
64712;SDS011;51140;45.340;5.980;2024-02-15T03:30:16;4.93;;;1.70;;
64712;SDS011;51140;45.340;5.980;2024-02-15T03:32:42;6.22;;;1.80;;
64712;SDS011;51140;45.340;5.980;2024-02-15T03:35:08;6.57;;;1.90;;
64712;SDS011;51140;45.340;5.980;2024-02-15T03:37:33;5.03;;;1.67;;
64712;SDS011;51140;45.340;5.980;2024-02-15T03:40:02;4.18;;;1.52;;
64712;SDS011;51140;45.340;5.980;2024-02-15T03:42:29;4.35;;;1.60;;
64712;SDS011;51140;45.340;5.980;2024-02-15T03:44:55;4.95;;;1.52;;
64712;SDS011;51140;45.340;5.980;2024-02-15T03:47:20;5.07;;;1.98;;
64712;SDS011;51140;45.340;5.980;2024-02-15T03:49:46;6.15;;;2.20;;
64712;SDS011;51140;45.340;5.980;2024-02-15T03:52:12;5.78;;;2.10;;
64712;SDS011;51140;45.340;5.980;2024-02-15T03:54:38;5.68;;;1.70;;
64712;SDS011;51140;45.340;5.980;2024-02-15T03:57:03;4.55;;;1.92;;
64712;SDS011;51140;45.340;5.980;2024-02-15T03:59:31;4.60;;;2.00;;
64712;SDS011;51140;45.340;5.980;2024-02-15T04:01:57;4.95;;;1.67;;
64712;SDS011;51140;45.340;5.980;2024-02-15T04:04:23;5.75;;;1.70;;
64712;SDS011;51140;45.340;5.980;2024-02-15T04:06:51;5.10;;;1.88;;
64712;SDS011;51140;45.340;5.980;2024-02-15T04:09:17;5.57;;;1.60;;
64712;SDS011;51140;45.340;5.980;2024-02-15T04:11:44;4.40;;;1.63;;
64712;SDS011;51140;45.340;5.980;2024-02-15T04:14:12;5.95;;;1.90;;
64712;SDS011;51140;45.340;5.980;2024-02-15T04:16:37;7.30;;;1.92;;
64712;SDS011;51140;45.340;5.980;2024-02-15T04:19:03;4.90;;;1.70;;
64712;SDS011;51140;45.340;5.980;2024-02-15T04:21:29;5.03;;;1.55;;
64712;SDS011;51140;45.340;5.980;2024-02-15T04:23:55;3.15;;;1.40;;
64712;SDS011;51140;45.340;5.980;2024-02-15T04:26:21;4.78;;;1.50;;
64712;SDS011;51140;45.340;5.980;2024-02-15T04:28:46;6.50;;;1.70;;
64712;SDS011;51140;45.340;5.980;2024-02-15T04:31:17;7.32;;;1.50;;
64712;SDS011;51140;45.340;5.980;2024-02-15T04:33:42;5.45;;;1.55;;
64712;SDS011;51140;45.340;5.980;2024-02-15T04:36:08;3.92;;;1.40;;
64712;SDS011;51140;45.340;5.980;2024-02-15T04:38:33;3.47;;;1.30;;
64712;SDS011;51140;45.340;5.980;2024-02-15T04:41:00;4.43;;;1.27;;
64712;SDS011;51140;45.340;5.980;2024-02-15T04:43:27;3.95;;;1.30;;
64712;SDS011;51140;45.340;5.980;2024-02-15T04:45:52;3.45;;;1.35;;
64712;SDS011;51140;45.340;5.980;2024-02-15T04:48:18;5.60;;;1.55;;
64712;SDS011;51140;45.340;5.980;2024-02-15T04:50:44;5.43;;;1.55;;
64712;SDS011;51140;45.340;5.980;2024-02-15T04:53:10;5.25;;;1.50;;
64712;SDS011;51140;45.340;5.980;2024-02-15T04:55:36;6.78;;;1.55;;
64712;SDS011;51140;45.340;5.980;2024-02-15T04:58:02;4.95;;;1.50;;
64712;SDS011;51140;45.340;5.980;2024-02-15T05:00:29;5.20;;;1.67;;
64712;SDS011;51140;45.340;5.980;2024-02-15T05:02:55;4.63;;;1.67;;
64712;SDS011;51140;45.340;5.980;2024-02-15T05:05:20;4.75;;;1.60;;
64712;SDS011;51140;45.340;5.980;2024-02-15T05:07:46;5.35;;;1.50;;
64712;SDS011;51140;45.340;5.980;2024-02-15T05:10:14;5.88;;;1.50;;
64712;SDS011;51140;45.340;5.980;2024-02-15T05:12:41;4.30;;;1.85;;
64712;SDS011;51140;45.340;5.980;2024-02-15T05:15:07;8.95;;;2.63;;
64712;SDS011;51140;45.340;5.980;2024-02-15T05:17:38;7.40;;;2.47;;
64712;SDS011;51140;45.340;5.980;2024-02-15T05:20:06;7.05;;;2.78;;
64712;SDS011;51140;45.340;5.980;2024-02-15T05:22:36;3.97;;;1.25;;
64712;SDS011;51140;45.340;5.980;2024-02-15T05:25:01;4.35;;;1.60;;
64712;SDS011;51140;45.340;5.980;2024-02-15T05:27:27;6.45;;;1.40;;
64712;SDS011;51140;45.340;5.980;2024-02-15T05:29:52;7.03;;;1.40;;
64712;SDS011;51140;45.340;5.980;2024-02-15T05:32:17;5.53;;;1.63;;
64712;SDS011;51140;45.340;5.980;2024-02-15T05:34:45;4.13;;;1.33;;
64712;SDS011;51140;45.340;5.980;2024-02-15T05:37:10;3.67;;;1.10;;
64712;SDS011;51140;45.340;5.980;2024-02-15T05:39:36;4.63;;;1.40;;
64712;SDS011;51140;45.340;5.980;2024-02-15T05:42:01;4.95;;;1.50;;
64712;SDS011;51140;45.340;5.980;2024-02-15T05:44:27;5.07;;;1.80;;
64712;SDS011;51140;45.340;5.980;2024-02-15T05:46:52;4.50;;;1.45;;
64712;SDS011;51140;45.340;5.980;2024-02-15T05:49:18;6.97;;;1.80;;
64712;SDS011;51140;45.340;5.980;2024-02-15T05:51:44;4.18;;;1.40;;
64712;SDS011;51140;45.340;5.980;2024-02-15T05:54:10;4.28;;;1.58;;
64712;SDS011;51140;45.340;5.980;2024-02-15T05:56:36;6.22;;;2.90;;
64712;SDS011;51140;45.340;5.980;2024-02-15T05:59:01;8.35;;;4.00;;
64712;SDS011;51140;45.340;5.980;2024-02-15T06:01:35;5.82;;;2.58;;
64712;SDS011;51140;45.340;5.980;2024-02-15T06:04:00;5.53;;;1.90;;
64712;SDS011;51140;45.340;5.980;2024-02-15T06:06:29;6.72;;;1.60;;
64712;SDS011;51140;45.340;5.980;2024-02-15T06:08:54;5.30;;;1.52;;
64712;SDS011;51140;45.340;5.980;2024-02-15T06:11:24;4.25;;;1.60;;
64712;SDS011;51140;45.340;5.980;2024-02-15T06:13:49;6.10;;;1.40;;
64712;SDS011;51140;45.340;5.980;2024-02-15T06:16:15;4.15;;;1.50;;
64712;SDS011;51140;45.340;5.980;2024-02-15T06:18:40;4.50;;;1.45;;
64712;SDS011;51140;45.340;5.980;2024-02-15T06:21:05;3.17;;;1.30;;
64712;SDS011;51140;45.340;5.980;2024-02-15T06:23:31;3.78;;;1.10;;
64712;SDS011;51140;45.340;5.980;2024-02-15T06:25:58;3.65;;;1.40;;
64712;SDS011;51140;45.340;5.980;2024-02-15T06:28:25;7.68;;;2.08;;
64712;SDS011;51140;45.340;5.980;2024-02-15T06:31:10;7.63;;;1.70;;
64712;SDS011;51140;45.340;5.980;2024-02-15T06:33:55;2.53;;;1.00;;
64712;SDS011;51140;45.340;5.980;2024-02-15T06:39:30;5.70;;;1.70;;
64712;SDS011;51140;45.340;5.980;2024-02-15T06:42:10;5.43;;;1.88;;
64712;SDS011;51140;45.340;5.980;2024-02-15T06:44:45;4.72;;;1.65;;
64712;SDS011;51140;45.340;5.980;2024-02-15T06:47:11;4.45;;;1.90;;
64712;SDS011;51140;45.340;5.980;2024-02-15T06:49:40;4.25;;;1.20;;
64712;SDS011;51140;45.340;5.980;2024-02-15T06:52:09;4.60;;;1.58;;
64712;SDS011;51140;45.340;5.980;2024-02-15T06:54:36;4.78;;;1.92;;
64712;SDS011;51140;45.340;5.980;2024-02-15T06:57:05;5.18;;;1.90;;
64712;SDS011;51140;45.340;5.980;2024-02-15T06:59:31;2.75;;;1.13;;
64712;SDS011;51140;45.340;5.980;2024-02-15T07:01:59;4.85;;;1.27;;
64712;SDS011;51140;45.340;5.980;2024-02-15T07:04:25;3.95;;;1.33;;
64712;SDS011;51140;45.340;5.980;2024-02-15T07:06:51;3.80;;;1.00;;
64712;SDS011;51140;45.340;5.980;2024-02-15T07:09:19;5.00;;;1.40;;
64712;SDS011;51140;45.340;5.980;2024-02-15T07:11:45;5.38;;;1.23;;
64712;SDS011;51140;45.340;5.980;2024-02-15T07:14:11;5.20;;;1.20;;
64712;SDS011;51140;45.340;5.980;2024-02-15T07:16:43;3.33;;;1.13;;
64712;SDS011;51140;45.340;5.980;2024-02-15T07:19:09;3.63;;;1.00;;
64712;SDS011;51140;45.340;5.980;2024-02-15T07:21:35;5.13;;;1.02;;
64712;SDS011;51140;45.340;5.980;2024-02-15T07:24:01;4.22;;;1.27;;
64712;SDS011;51140;45.340;5.980;2024-02-15T07:26:26;5.72;;;1.00;;
64712;SDS011;51140;45.340;5.980;2024-02-15T07:28:53;3.00;;;0.90;;
64712;SDS011;51140;45.340;5.980;2024-02-15T07:31:19;3.83;;;1.30;;
64712;SDS011;51140;45.340;5.980;2024-02-15T07:33:46;5.72;;;2.28;;
64712;SDS011;51140;45.340;5.980;2024-02-15T07:36:21;12.13;;;7.75;;
64712;SDS011;51140;45.340;5.980;2024-02-15T07:38:47;20.85;;;9.15;;
64712;SDS011;51140;45.340;5.980;2024-02-15T07:41:14;18.10;;;9.55;;
64712;SDS011;51140;45.340;5.980;2024-02-15T07:43:40;18.98;;;9.52;;
64712;SDS011;51140;45.340;5.980;2024-02-15T07:46:05;15.80;;;8.73;;
64712;SDS011;51140;45.340;5.980;2024-02-15T07:48:31;23.42;;;11.63;;
64712;SDS011;51140;45.340;5.980;2024-02-15T07:50:57;20.90;;;11.07;;
64712;SDS011;51140;45.340;5.980;2024-02-15T07:53:23;22.58;;;11.73;;
64712;SDS011;51140;45.340;5.980;2024-02-15T07:55:49;19.42;;;10.10;;
64712;SDS011;51140;45.340;5.980;2024-02-15T07:58:15;20.20;;;10.60;;
64712;SDS011;51140;45.340;5.980;2024-02-15T08:00:43;21.92;;;8.80;;
64712;SDS011;51140;45.340;5.980;2024-02-15T08:03:08;13.68;;;7.78;;
64712;SDS011;51140;45.340;5.980;2024-02-15T08:05:35;15.80;;;7.78;;
64712;SDS011;51140;45.340;5.980;2024-02-15T08:08:02;17.17;;;9.05;;
64712;SDS011;51140;45.340;5.980;2024-02-15T08:10:29;13.80;;;6.50;;
64712;SDS011;51140;45.340;5.980;2024-02-15T08:12:54;13.57;;;7.20;;
64712;SDS011;51140;45.340;5.980;2024-02-15T08:15:22;18.33;;;7.30;;
64712;SDS011;51140;45.340;5.980;2024-02-15T08:17:49;11.60;;;4.97;;
64712;SDS011;51140;45.340;5.980;2024-02-15T08:20:15;11.68;;;6.00;;
64712;SDS011;51140;45.340;5.980;2024-02-15T08:22:46;12.10;;;5.60;;
64712;SDS011;51140;45.340;5.980;2024-02-15T08:25:12;10.63;;;4.68;;
64712;SDS011;51140;45.340;5.980;2024-02-15T08:27:40;13.10;;;4.70;;
64712;SDS011;51140;45.340;5.980;2024-02-15T08:30:09;16.10;;;6.65;;
64712;SDS011;51140;45.340;5.980;2024-02-15T08:32:36;20.02;;;9.48;;
64712;SDS011;51140;45.340;5.980;2024-02-15T08:35:02;13.85;;;6.50;;
64712;SDS011;51140;45.340;5.980;2024-02-15T08:37:29;11.50;;;5.00;;
64712;SDS011;51140;45.340;5.980;2024-02-15T08:39:57;15.10;;;7.60;;
64712;SDS011;51140;45.340;5.980;2024-02-15T08:42:22;15.40;;;8.43;;
64712;SDS011;51140;45.340;5.980;2024-02-15T08:44:48;13.07;;;5.70;;
64712;SDS011;51140;45.340;5.980;2024-02-15T08:47:13;11.20;;;5.65;;
64712;SDS011;51140;45.340;5.980;2024-02-15T08:49:39;12.27;;;5.50;;
64712;SDS011;51140;45.340;5.980;2024-02-15T08:52:05;9.98;;;4.55;;
64712;SDS011;51140;45.340;5.980;2024-02-15T08:54:32;10.60;;;5.10;;
64712;SDS011;51140;45.340;5.980;2024-02-15T08:56:58;25.63;;;10.23;;
64712;SDS011;51140;45.340;5.980;2024-02-15T08:59:23;17.17;;;8.02;;
64712;SDS011;51140;45.340;5.980;2024-02-15T09:01:50;20.40;;;8.38;;
64712;SDS011;51140;45.340;5.980;2024-02-15T09:04:16;18.05;;;8.68;;
64712;SDS011;51140;45.340;5.980;2024-02-15T09:06:41;22.52;;;9.35;;
64712;SDS011;51140;45.340;5.980;2024-02-15T09:09:08;19.05;;;8.75;;
64712;SDS011;51140;45.340;5.980;2024-02-15T09:11:33;15.90;;;7.03;;
64712;SDS011;51140;45.340;5.980;2024-02-15T09:13:59;11.20;;;5.28;;
64712;SDS011;51140;45.340;5.980;2024-02-15T09:16:25;14.55;;;7.25;;
64712;SDS011;51140;45.340;5.980;2024-02-15T09:18:50;14.73;;;8.00;;
64712;SDS011;51140;45.340;5.980;2024-02-15T09:21:16;16.00;;;7.00;;
64712;SDS011;51140;45.340;5.980;2024-02-15T09:23:41;14.68;;;6.57;;
64712;SDS011;51140;45.340;5.980;2024-02-15T09:26:06;14.13;;;6.40;;
64712;SDS011;51140;45.340;5.980;2024-02-15T09:28:34;12.38;;;6.10;;
64712;SDS011;51140;45.340;5.980;2024-02-15T09:31:00;15.55;;;6.43;;
64712;SDS011;51140;45.340;5.980;2024-02-15T09:33:26;10.20;;;4.70;;
64712;SDS011;51140;45.340;5.980;2024-02-15T09:35:52;9.38;;;3.83;;
64712;SDS011;51140;45.340;5.980;2024-02-15T09:38:20;9.38;;;4.38;;
64712;SDS011;51140;45.340;5.980;2024-02-15T09:40:49;9.32;;;4.10;;
64712;SDS011;51140;45.340;5.980;2024-02-15T09:43:15;9.05;;;4.18;;
64712;SDS011;51140;45.340;5.980;2024-02-15T09:45:41;7.57;;;3.65;;
64712;SDS011;51140;45.340;5.980;2024-02-15T09:48:07;7.43;;;3.15;;
64712;SDS011;51140;45.340;5.980;2024-02-15T09:50:35;8.15;;;3.30;;
64712;SDS011;51140;45.340;5.980;2024-02-15T09:53:04;8.27;;;3.15;;
64712;SDS011;51140;45.340;5.980;2024-02-15T09:55:31;8.15;;;3.28;;
64712;SDS011;51140;45.340;5.980;2024-02-15T09:57:58;12.90;;;3.53;;
64712;SDS011;51140;45.340;5.980;2024-02-15T10:00:24;7.82;;;3.53;;
64712;SDS011;51140;45.340;5.980;2024-02-15T10:02:50;8.82;;;3.45;;
64712;SDS011;51140;45.340;5.980;2024-02-15T10:05:20;6.82;;;3.05;;
64712;SDS011;51140;45.340;5.980;2024-02-15T10:07:46;14.23;;;4.40;;
64712;SDS011;51140;45.340;5.980;2024-02-15T10:12:41;8.88;;;3.55;;
64712;SDS011;51140;45.340;5.980;2024-02-15T10:15:08;11.50;;;4.35;;
64712;SDS011;51140;45.340;5.980;2024-02-15T10:17:34;12.77;;;7.07;;
64712;SDS011;51140;45.340;5.980;2024-02-15T10:20:04;12.05;;;6.95;;
64712;SDS011;51140;45.340;5.980;2024-02-15T10:22:31;14.05;;;5.22;;
64712;SDS011;51140;45.340;5.980;2024-02-15T10:25:13;17.20;;;5.40;;
64712;SDS011;51140;45.340;5.980;2024-02-15T10:27:40;10.75;;;4.55;;
64712;SDS011;51140;45.340;5.980;2024-02-15T10:30:15;11.35;;;5.07;;
64712;SDS011;51140;45.340;5.980;2024-02-15T10:32:42;12.48;;;6.57;;
64712;SDS011;51140;45.340;5.980;2024-02-15T10:35:09;13.90;;;5.63;;
64712;SDS011;51140;45.340;5.980;2024-02-15T10:37:34;12.20;;;5.57;;
64712;SDS011;51140;45.340;5.980;2024-02-15T10:40:06;11.88;;;4.80;;
64712;SDS011;51140;45.340;5.980;2024-02-15T10:42:32;10.15;;;4.85;;
64712;SDS011;51140;45.340;5.980;2024-02-15T10:45:04;9.40;;;5.05;;
64712;SDS011;51140;45.340;5.980;2024-02-15T10:47:31;9.40;;;4.43;;
64712;SDS011;51140;45.340;5.980;2024-02-15T10:49:57;8.85;;;4.35;;
64712;SDS011;51140;45.340;5.980;2024-02-15T10:52:23;12.77;;;4.43;;
64712;SDS011;51140;45.340;5.980;2024-02-15T10:54:52;9.77;;;4.63;;
64712;SDS011;51140;45.340;5.980;2024-02-15T10:57:28;10.05;;;5.30;;
64712;SDS011;51140;45.340;5.980;2024-02-15T10:59:58;9.90;;;3.75;;
64712;SDS011;51140;45.340;5.980;2024-02-15T11:02:29;7.95;;;3.78;;
64712;SDS011;51140;45.340;5.980;2024-02-15T11:07:30;6.60;;;2.40;;
64712;SDS011;51140;45.340;5.980;2024-02-15T11:09:56;6.80;;;2.75;;
64712;SDS011;51140;45.340;5.980;2024-02-15T11:12:22;7.18;;;2.53;;
64712;SDS011;51140;45.340;5.980;2024-02-15T11:14:50;13.98;;;5.78;;
64712;SDS011;51140;45.340;5.980;2024-02-15T11:20:02;6.88;;;2.42;;
64712;SDS011;51140;45.340;5.980;2024-02-15T11:22:33;6.18;;;2.83;;
64712;SDS011;51140;45.340;5.980;2024-02-15T11:25:02;5.22;;;2.15;;
64712;SDS011;51140;45.340;5.980;2024-02-15T11:27:37;7.82;;;2.40;;
64712;SDS011;51140;45.340;5.980;2024-02-15T11:30:04;6.53;;;2.60;;
64712;SDS011;51140;45.340;5.980;2024-02-15T11:32:38;8.18;;;3.03;;
64712;SDS011;51140;45.340;5.980;2024-02-15T11:35:08;6.72;;;2.65;;
64712;SDS011;51140;45.340;5.980;2024-02-15T11:40:13;7.03;;;2.72;;
64712;SDS011;51140;45.340;5.980;2024-02-15T11:42:45;8.77;;;2.50;;
64712;SDS011;51140;45.340;5.980;2024-02-15T11:45:11;6.45;;;2.70;;
64712;SDS011;51140;45.340;5.980;2024-02-15T11:47:38;7.75;;;2.42;;
64712;SDS011;51140;45.340;5.980;2024-02-15T11:50:07;6.57;;;2.30;;
64712;SDS011;51140;45.340;5.980;2024-02-15T11:52:37;8.80;;;3.00;;
64712;SDS011;51140;45.340;5.980;2024-02-15T11:55:05;10.98;;;3.65;;
64712;SDS011;51140;45.340;5.980;2024-02-15T11:57:53;7.82;;;3.50;;
64712;SDS011;51140;45.340;5.980;2024-02-15T12:00:34;6.97;;;3.08;;
64712;SDS011;51140;45.340;5.980;2024-02-15T12:03:19;9.50;;;4.35;;
64712;SDS011;51140;45.340;5.980;2024-02-15T12:06:04;9.18;;;3.25;;
64712;SDS011;51140;45.340;5.980;2024-02-15T12:08:49;7.00;;;3.00;;
64712;SDS011;51140;45.340;5.980;2024-02-15T12:11:34;8.77;;;3.10;;
64712;SDS011;51140;45.340;5.980;2024-02-15T12:14:18;9.63;;;3.13;;
64712;SDS011;51140;45.340;5.980;2024-02-15T12:17:03;9.45;;;3.42;;
64712;SDS011;51140;45.340;5.980;2024-02-15T12:19:49;7.18;;;2.60;;
64712;SDS011;51140;45.340;5.980;2024-02-15T12:22:19;7.65;;;3.08;;
64712;SDS011;51140;45.340;5.980;2024-02-15T12:24:53;8.25;;;3.67;;
64712;SDS011;51140;45.340;5.980;2024-02-15T12:27:23;7.88;;;2.63;;
64712;SDS011;51140;45.340;5.980;2024-02-15T12:29:52;7.88;;;2.47;;
64712;SDS011;51140;45.340;5.980;2024-02-15T12:32:22;8.27;;;2.75;;
64712;SDS011;51140;45.340;5.980;2024-02-15T12:34:48;7.88;;;2.50;;
64712;SDS011;51140;45.340;5.980;2024-02-15T12:37:17;6.88;;;2.33;;
64712;SDS011;51140;45.340;5.980;2024-02-15T12:39:43;7.63;;;2.20;;
64712;SDS011;51140;45.340;5.980;2024-02-15T12:42:09;6.57;;;2.70;;
64712;SDS011;51140;45.340;5.980;2024-02-15T12:44:35;6.10;;;2.38;;
64712;SDS011;51140;45.340;5.980;2024-02-15T12:47:01;8.85;;;2.47;;
64712;SDS011;51140;45.340;5.980;2024-02-15T12:49:28;5.72;;;2.17;;
64712;SDS011;51140;45.340;5.980;2024-02-15T12:52:32;7.30;;;2.10;;
64712;SDS011;51140;45.340;5.980;2024-02-15T12:55:10;9.05;;;2.38;;
64712;SDS011;51140;45.340;5.980;2024-02-15T12:57:37;8.32;;;3.03;;
64712;SDS011;51140;45.340;5.980;2024-02-15T13:00:06;11.77;;;4.10;;
64712;SDS011;51140;45.340;5.980;2024-02-15T13:02:39;8.07;;;3.28;;
64712;SDS011;51140;45.340;5.980;2024-02-15T13:05:06;12.48;;;3.40;;
64712;SDS011;51140;45.340;5.980;2024-02-15T13:07:35;9.23;;;3.55;;
64712;SDS011;51140;45.340;5.980;2024-02-15T13:10:02;7.57;;;3.38;;
64712;SDS011;51140;45.340;5.980;2024-02-15T13:12:28;7.22;;;3.30;;
64712;SDS011;51140;45.340;5.980;2024-02-15T13:14:54;5.72;;;2.85;;
64712;SDS011;51140;45.340;5.980;2024-02-15T13:17:19;9.52;;;2.60;;
64712;SDS011;51140;45.340;5.980;2024-02-15T13:19:45;7.55;;;2.58;;
64712;SDS011;51140;45.340;5.980;2024-02-15T13:22:14;11.45;;;2.28;;
64712;SDS011;51140;45.340;5.980;2024-02-15T13:24:46;7.50;;;2.70;;
64712;SDS011;51140;45.340;5.980;2024-02-15T13:27:11;11.55;;;2.83;;
64712;SDS011;51140;45.340;5.980;2024-02-15T13:29:37;8.63;;;2.90;;
64712;SDS011;51140;45.340;5.980;2024-02-15T13:32:05;11.23;;;2.90;;
64712;SDS011;51140;45.340;5.980;2024-02-15T13:34:31;7.60;;;2.53;;
64712;SDS011;51140;45.340;5.980;2024-02-15T13:36:58;6.47;;;2.78;;
64712;SDS011;51140;45.340;5.980;2024-02-15T13:39:26;10.55;;;3.20;;
64712;SDS011;51140;45.340;5.980;2024-02-15T13:41:57;7.10;;;2.63;;
64712;SDS011;51140;45.340;5.980;2024-02-15T13:44:23;6.63;;;2.63;;
64712;SDS011;51140;45.340;5.980;2024-02-15T13:46:49;6.50;;;2.42;;
64712;SDS011;51140;45.340;5.980;2024-02-15T13:49:15;5.70;;;2.33;;
64712;SDS011;51140;45.340;5.980;2024-02-15T13:51:40;7.72;;;3.15;;
64712;SDS011;51140;45.340;5.980;2024-02-15T13:54:05;5.97;;;2.13;;
64712;SDS011;51140;45.340;5.980;2024-02-15T13:56:31;8.55;;;4.07;;
64712;SDS011;51140;45.340;5.980;2024-02-15T13:58:56;8.13;;;3.03;;
64712;SDS011;51140;45.340;5.980;2024-02-15T14:01:22;11.15;;;3.20;;
64712;SDS011;51140;45.340;5.980;2024-02-15T14:03:51;9.07;;;3.10;;
64712;SDS011;51140;45.340;5.980;2024-02-15T14:06:19;8.70;;;3.40;;
64712;SDS011;51140;45.340;5.980;2024-02-15T14:08:45;9.80;;;3.55;;
64712;SDS011;51140;45.340;5.980;2024-02-15T14:11:12;10.43;;;3.08;;
64712;SDS011;51140;45.340;5.980;2024-02-15T14:13:37;8.57;;;2.67;;
64712;SDS011;51140;45.340;5.980;2024-02-15T14:16:02;6.47;;;2.45;;
64712;SDS011;51140;45.340;5.980;2024-02-15T14:18:29;7.15;;;2.40;;
64712;SDS011;51140;45.340;5.980;2024-02-15T14:20:55;8.48;;;2.63;;
64712;SDS011;51140;45.340;5.980;2024-02-15T14:23:21;10.85;;;2.55;;
64712;SDS011;51140;45.340;5.980;2024-02-15T14:25:46;10.65;;;2.80;;
64712;SDS011;51140;45.340;5.980;2024-02-15T14:28:12;7.15;;;2.60;;
64712;SDS011;51140;45.340;5.980;2024-02-15T14:30:39;9.60;;;2.85;;
64712;SDS011;51140;45.340;5.980;2024-02-15T14:33:23;12.27;;;2.80;;
64712;SDS011;51140;45.340;5.980;2024-02-15T14:35:49;8.13;;;2.78;;
64712;SDS011;51140;45.340;5.980;2024-02-15T14:38:18;8.48;;;2.60;;
64712;SDS011;51140;45.340;5.980;2024-02-15T14:40:46;7.63;;;2.55;;
64712;SDS011;51140;45.340;5.980;2024-02-15T14:43:20;13.82;;;2.55;;
64712;SDS011;51140;45.340;5.980;2024-02-15T14:45:47;7.10;;;2.40;;
64712;SDS011;51140;45.340;5.980;2024-02-15T14:48:13;8.43;;;2.40;;
64712;SDS011;51140;45.340;5.980;2024-02-15T14:50:42;8.15;;;2.80;;
64712;SDS011;51140;45.340;5.980;2024-02-15T14:53:09;8.15;;;3.10;;
64712;SDS011;51140;45.340;5.980;2024-02-15T14:55:34;9.45;;;2.92;;
64712;SDS011;51140;45.340;5.980;2024-02-15T14:58:03;9.85;;;2.90;;
64712;SDS011;51140;45.340;5.980;2024-02-15T15:00:30;7.63;;;3.10;;